Etusivu
METAR-TAF:

METAR-TAF

Lentoasemat :

Sion, Sveitsi

Leveyspiiri: 46-13N, Pituuspiiri: 007-20E, korkeus merenpinnasta: 482 m

Tämänhetkinen sää

Tämä raportti tehtiin 20 minuuttia sitten, kello 03.50 UTC
Tuuli 1 kn eri suunnista
Lämpötila 1°C
Kosteus 69%
Ilmanpaine 1023 hPa
Näkyvyys 10 km tai enemmän
ei pilviä alle 1500 m:ssä eikä cumulonimbus-pilviä

METAR: LSGS 190350Z AUTO VRB01KT CAVOK 01/M04 Q1023

Aika: 05:10 (04:10 UTC)

Sääennuste

Tämä raportti tehtiin 13 tuntia ja 45 minuuttia sitten, kello 14.25 UTC
Ennuste voimassa 18. päivästä klo 15 UTC - 18. päivään klo 24 UTC
Tuuli 10 kn lännestä/lounaasta
Näkyvyys 10 km tai enemmän
Hajanaisia pilviä 8000 ft:n korkeudessa
Tulossa
18. päivästä klo 18 UTC - 18. päivään klo 20 UTC
Tuuli 3 kn eri suunnista

TAF: LSGS 181425Z 1815/1824 25010KT 9999 SCT080 BECMG 1818/1820 VRB03KT

Säähavainnot ja -ennusteet yli 4000 lentoasemalta (METAR- ja TAF-raportit).

Käytössä olevat sääasemat on merkitty karttaan keltaisilla ja punaisilla pisteillä.

Aseta hiiri pisteen päälle nähdäksesi sääaseman nimen.

Klikkaa sitten nähdäksesi säähavainnot ja -ennusteet.

Kartan vaihtaminen: klikkaa mustalla rastilla varustettuja vihreitä pisteitä, niin voit zoomata sisään; viivalla varustettua vihreää pistettä, niin voit zoomata ulos tai vihreitä nuolia, niin pääset viereisille kartoille.


METAR-TAF: